Time;durP1;ratioP1;P1;durP2;ratioP2;P2;SDS_P1;SDS_P2;PMS_P1;PMS_P2;Temp;Humidity;BMP_temperature;BMP_pressure;BME280_temperature;BME280_humidity;BME280_pressure;Samples;Min_cycle;Max_cycle;Signal;HPM_P1;HPM_P2
2022/01/29 00:01:29;;;;;;;29.60;12.30;;;6.70;99.90;;;;;;5042576;28;20056;-62
2022/01/29 00:03:55;;;;;;;34.55;12.43;;;6.80;99.90;;;;;;5050118;28;20064;-62
2022/01/29 00:06:21;;;;;;;33.10;12.38;;;6.80;99.90;;;;;;5050314;28;20518;-62
2022/01/29 00:08:47;;;;;;;39.53;12.93;;;6.80;99.90;;;;;;5041247;28;20041;-62
2022/01/29 00:11:15;;;;;;;31.15;13.05;;;6.80;99.90;;;;;;5020594;28;20041;-62
2022/01/29 00:13:41;;;;;;;38.25;13.18;;;6.80;99.90;;;;;;5024803;28;20053;-61
2022/01/29 00:16:07;;;;;;;31.95;11.80;;;6.80;99.90;;;;;;5036567;28;20043;-61
2022/01/29 00:18:34;;;;;;;35.40;12.35;;;6.90;99.90;;;;;;5029803;28;20277;-62
2022/01/29 00:21:00;;;;;;;36.30;12.57;;;6.90;99.90;;;;;;5054414;28;20117;-62
2022/01/29 00:23:26;;;;;;;38.22;13.60;;;6.90;99.90;;;;;;5032189;28;20048;-62
2022/01/29 00:25:52;;;;;;;32.15;13.13;;;6.90;99.90;;;;;;5034608;28;20087;-62
2022/01/29 00:28:18;;;;;;;30.00;14.05;;;6.90;99.90;;;;;;5008304;28;20380;-62
2022/01/29 00:30:45;;;;;;;41.80;13.68;;;6.90;99.90;;;;;;5031780;28;20080;-62
2022/01/29 00:33:12;;;;;;;44.17;15.90;;;6.90;99.90;;;;;;5034538;28;20388;-61
2022/01/29 00:35:38;;;;;;;37.47;15.05;;;6.90;99.90;;;;;;5034391;28;20049;-62
2022/01/29 00:38:04;;;;;;;38.05;15.25;;;6.90;99.90;;;;;;5031013;28;20056;-62
2022/01/29 00:40:36;;;;;;;33.42;15.20;;;6.90;99.90;;;;;;5034393;28;20515;-61
2022/01/29 00:43:03;;;;;;;40.78;14.93;;;7.00;99.90;;;;;;5025417;28;20504;-62
2022/01/29 00:45:29;;;;;;;34.25;14.50;;;6.90;99.90;;;;;;5033656;28;20060;-62
2022/01/29 00:47:55;;;;;;;34.95;15.27;;;6.90;99.90;;;;;;5033448;28;20567;-61
2022/01/29 00:50:21;;;;;;;39.05;15.15;;;6.90;99.90;;;;;;5033883;28;20040;-62
2022/01/29 00:52:47;;;;;;;37.45;15.25;;;6.90;99.90;;;;;;5036363;28;20527;-62
2022/01/29 00:55:13;;;;;;;34.17;14.02;;;6.90;99.90;;;;;;5030657;28;20046;-61
2022/01/29 00:57:40;;;;;;;36.67;15.77;;;7.00;99.90;;;;;;5032384;28;20518;-63
2022/01/29 01:00:08;;;;;;;41.42;15.15;;;6.90;99.90;;;;;;5023525;28;20053;-62
2022/01/29 01:02:34;;;;;;;37.35;15.68;;;6.90;99.90;;;;;;5036187;28;20578;-62
2022/01/29 01:05:00;;;;;;;32.60;15.65;;;6.90;99.90;;;;;;5036729;28;20064;-61
2022/01/29 01:07:26;;;;;;;40.05;15.18;;;7.00;99.90;;;;;;5013780;28;20056;-61
2022/01/29 01:09:52;;;;;;;39.40;16.20;;;7.00;99.90;;;;;;5041333;28;20041;-61
2022/01/29 01:12:18;;;;;;;44.63;15.80;;;7.00;99.90;;;;;;5024959;28;20067;-62
2022/01/29 01:14:44;;;;;;;36.05;15.80;;;7.00;99.90;;;;;;5017940;28;20041;-62
2022/01/29 01:17:10;;;;;;;43.28;16.30;;;7.00;99.90;;;;;;5020861;28;20106;-62
2022/01/29 01:19:36;;;;;;;36.63;15.50;;;7.00;99.90;;;;;;5002198;28;20044;-62
2022/01/29 01:22:02;;;;;;;37.70;16.17;;;7.00;99.90;;;;;;5018566;28;20068;-62
2022/01/29 01:24:28;;;;;;;42.65;16.33;;;7.00;99.90;;;;;;5046861;28;20047;-62
2022/01/29 01:26:54;;;;;;;39.03;16.27;;;7.10;99.90;;;;;;5005866;28;20049;-62
2022/01/29 01:29:20;;;;;;;41.97;16.23;;;7.00;99.90;;;;;;5050832;28;20053;-61
2022/01/29 01:31:46;;;;;;;34.08;15.48;;;7.10;99.90;;;;;;5030692;28;22067;-63
2022/01/29 01:34:13;;;;;;;40.28;15.85;;;7.10;99.90;;;;;;5029561;28;20546;-62
2022/01/29 01:36:50;;;;;;;38.17;16.45;;;7.10;99.90;;;;;;5040116;28;20513;-62
2022/01/29 01:39:20;;;;;;;43.67;16.88;;;7.10;99.90;;;;;;5047906;28;20087;-61
2022/01/29 01:41:55;;;;;;;40.17;16.85;;;7.20;99.90;;;;;;5022952;28;20051;-61
2022/01/29 01:44:21;;;;;;;44.08;17.17;;;7.10;99.90;;;;;;5033587;28;20052;-61
2022/01/29 01:46:47;;;;;;;41.45;17.05;;;7.20;99.90;;;;;;5016901;28;20091;-61
2022/01/29 01:49:14;;;;;;;40.45;17.67;;;7.20;99.90;;;;;;5033083;28;20048;-62
2022/01/29 01:51:41;;;;;;;35.92;17.65;;;7.20;99.90;;;;;;5045108;28;20047;-62
2022/01/29 01:54:06;;;;;;;39.38;18.00;;;7.20;99.90;;;;;;5031142;28;20036;-62
2022/01/29 01:56:32;;;;;;;41.08;17.40;;;7.20;99.90;;;;;;5015272;28;20847;-62
2022/01/29 01:58:58;;;;;;;43.72;16.95;;;7.20;99.90;;;;;;5032795;28;20551;-62
2022/01/29 02:01:24;;;;;;;38.83;17.02;;;7.20;99.90;;;;;;5049875;28;20375;-62
2022/01/29 02:03:50;;;;;;;37.53;16.98;;;7.20;99.90;;;;;;5023659;28;21001;-61
2022/01/29 02:06:17;;;;;;;40.58;17.80;;;7.30;99.90;;;;;;5012788;28;20052;-62
2022/01/29 02:08:42;;;;;;;38.28;16.00;;;7.30;99.90;;;;;;5038459;28;20060;-62
2022/01/29 02:11:09;;;;;;;33.97;15.43;;;7.30;99.90;;;;;;5035074;28;20097;-61
2022/01/29 02:13:35;;;;;;;37.22;15.30;;;7.30;99.90;;;;;;5039571;28;20511;-62
2022/01/29 02:16:02;;;;;;;40.53;16.40;;;7.30;99.90;;;;;;5021463;28;20048;-62
2022/01/29 02:18:28;;;;;;;35.50;16.02;;;7.30;99.90;;;;;;5017345;28;20566;-62
2022/01/29 02:20:54;;;;;;;39.20;15.95;;;7.40;99.90;;;;;;5023439;28;20080;-62
2022/01/29 02:23:20;;;;;;;36.10;15.48;;;7.40;99.90;;;;;;5039055;28;20567;-61
2022/01/29 02:25:48;;;;;;;38.50;16.17;;;7.40;99.90;;;;;;5033725;28;20101;-62
2022/01/29 02:28:16;;;;;;;36.13;14.02;;;7.40;99.90;;;;;;5030902;28;20056;-62
2022/01/29 02:30:46;;;;;;;38.08;13.93;;;7.40;99.90;;;;;;5032574;28;20048;-62
2022/01/29 02:33:14;;;;;;;31.73;13.40;;;7.40;99.90;;;;;;5033492;28;20132;-62
2022/01/29 02:35:52;;;;;;;37.35;14.00;;;7.50;99.90;;;;;;5031477;28;20672;-62
2022/01/29 02:38:21;;;;;;;36.05;14.75;;;7.50;99.90;;;;;;5029956;28;20049;-62
2022/01/29 02:40:50;;;;;;;35.80;14.20;;;7.50;99.90;;;;;;5016193;28;20137;-62
2022/01/29 02:43:23;;;;;;;33.38;13.90;;;7.50;99.90;;;;;;5032409;28;20098;-62
2022/01/29 02:45:52;;;;;;;37.83;14.32;;;7.50;99.90;;;;;;5027154;28;20499;-62
2022/01/29 02:48:20;;;;;;;36.65;13.93;;;7.60;99.90;;;;;;5051303;28;20573;-61
2022/01/29 02:50:46;;;;;;;31.38;13.52;;;7.60;99.90;;;;;;5034473;28;20055;-62
2022/01/29 02:53:12;;;;;;;37.38;14.68;;;7.60;99.90;;;;;;5037140;28;20056;-62
2022/01/29 02:55:38;;;;;;;34.40;13.98;;;7.60;99.90;;;;;;5035870;28;20045;-62
2022/01/29 02:58:04;;;;;;;39.55;14.90;;;7.60;99.90;;;;;;5015303;28;20049;-62
2022/01/29 03:00:30;;;;;;;36.83;14.82;;;7.60;99.90;;;;;;5025046;28;20048;-62
2022/01/29 03:02:56;;;;;;;33.90;14.63;;;7.60;99.90;;;;;;5038044;28;20044;-62
2022/01/29 03:05:22;;;;;;;35.33;14.82;;;7.60;99.90;;;;;;5034222;28;20049;-62
2022/01/29 03:07:48;;;;;;;34.42;14.27;;;7.60;99.90;;;;;;5032286;28;20506;-62
2022/01/29 03:10:14;;;;;;;29.38;15.18;;;7.60;99.90;;;;;;5039430;28;20487;-61
2022/01/29 03:12:41;;;;;;;34.97;14.80;;;7.60;99.90;;;;;;5022480;28;20434;-62
2022/01/29 03:15:12;;;;;;;38.53;15.25;;;7.70;99.90;;;;;;5019013;28;20040;-62
2022/01/29 03:17:38;;;;;;;34.03;15.00;;;7.70;99.90;;;;;;5016183;28;20044;-62
2022/01/29 03:20:04;;;;;;;41.30;16.17;;;7.70;99.90;;;;;;5036896;28;20105;-63
2022/01/29 03:22:30;;;;;;;33.60;15.20;;;7.70;99.90;;;;;;5033715;28;20057;-62
2022/01/29 03:24:56;;;;;;;31.40;14.85;;;7.70;99.90;;;;;;5039722;28;20047;-62
2022/01/29 03:27:22;;;;;;;31.95;14.38;;;7.70;99.90;;;;;;5036380;28;20474;-62
2022/01/29 03:29:48;;;;;;;34.97;15.45;;;7.70;99.90;;;;;;5026549;28;20147;-61
2022/01/29 03:32:14;;;;;;;37.22;15.13;;;7.70;99.90;;;;;;5005288;28;20399;-62
2022/01/29 03:34:40;;;;;;;40.25;14.40;;;7.70;99.90;;;;;;5034831;28;20049;-62
2022/01/29 03:37:06;;;;;;;38.30;15.00;;;7.80;99.90;;;;;;5035395;28;20045;-61
2022/01/29 03:39:34;;;;;;;34.33;14.48;;;7.80;99.90;;;;;;5054054;28;20407;-62
2022/01/29 03:42:04;;;;;;;39.25;15.27;;;7.80;99.90;;;;;;5034007;28;20040;-62
2022/01/29 03:44:30;;;;;;;31.65;14.98;;;7.80;99.90;;;;;;5036154;28;20049;-62
2022/01/29 03:46:56;;;;;;;37.33;15.07;;;7.80;99.90;;;;;;5031053;28;20098;-62
2022/01/29 03:49:22;;;;;;;36.00;15.23;;;7.80;99.90;;;;;;5035626;28;20522;-61
2022/01/29 03:51:47;;;;;;;38.20;15.35;;;7.80;99.90;;;;;;5033080;28;20056;-61
2022/01/29 03:54:13;;;;;;;40.03;15.82;;;7.80;99.90;;;;;;5035761;28;20418;-62
2022/01/29 03:56:39;;;;;;;36.15;16.17;;;7.80;99.90;;;;;;5014267;28;20045;-62
2022/01/29 03:59:05;;;;;;;37.08;16.27;;;7.80;99.90;;;;;;5031693;28;20056;-62
2022/01/29 04:01:31;;;;;;;37.22;16.48;;;7.70;99.90;;;;;;5025798;28;20048;-61
2022/01/29 04:03:57;;;;;;;34.40;15.82;;;7.80;99.90;;;;;;5018688;28;20062;-62
2022/01/29 04:06:24;;;;;;;37.13;15.07;;;7.90;99.90;;;;;;5033636;28;20574;-62
2022/01/29 04:08:50;;;;;;;41.65;15.85;;;7.80;99.90;;;;;;5033683;28;20451;-63
2022/01/29 04:11:16;;;;;;;37.83;16.13;;;7.80;99.90;;;;;;5020744;28;20049;-62
2022/01/29 04:13:46;;;;;;;37.72;15.90;;;7.90;99.90;;;;;;5050199;28;20067;-62
2022/01/29 04:16:13;;;;;;;34.63;15.45;;;7.90;99.90;;;;;;5041455;28;20052;-62
2022/01/29 04:18:39;;;;;;;34.58;15.20;;;7.90;99.90;;;;;;5036368;28;20198;-62
2022/01/29 04:21:06;;;;;;;30.80;15.73;;;7.90;99.90;;;;;;5044729;28;20237;-61
2022/01/29 04:23:33;;;;;;;37.63;17.00;;;7.90;99.90;;;;;;5032975;28;20825;-62
2022/01/29 04:26:00;;;;;;;40.78;16.30;;;7.90;99.90;;;;;;5050173;28;20048;-62
2022/01/29 04:28:31;;;;;;;35.28;15.55;;;7.90;99.90;;;;;;5048653;28;20144;-62
2022/01/29 04:31:09;;;;;;;36.10;16.80;;;7.90;99.90;;;;;;5043278;28;20044;-62
2022/01/29 04:33:35;;;;;;;32.35;15.90;;;7.90;99.90;;;;;;5033109;28;20052;-62
2022/01/29 04:36:04;;;;;;;36.08;16.65;;;7.90;99.90;;;;;;5023722;28;20049;-62
2022/01/29 04:38:30;;;;;;;35.90;17.35;;;7.90;99.90;;;;;;5017797;28;20045;-61
2022/01/29 04:41:00;;;;;;;34.00;16.08;;;8.00;99.90;;;;;;5036303;28;20799;-62
2022/01/29 04:43:26;;;;;;;36.83;17.48;;;8.00;99.90;;;;;;5023138;28;20048;-63
2022/01/29 04:45:52;;;;;;;32.05;16.20;;;8.00;99.90;;;;;;5032066;28;20108;-62
2022/01/29 04:48:18;;;;;;;36.80;16.65;;;8.00;99.90;;;;;;5034887;28;20094;-62
2022/01/29 04:50:43;;;;;;;37.13;16.63;;;8.00;99.90;;;;;;5035797;28;20055;-63
2022/01/29 04:53:09;;;;;;;34.67;16.70;;;8.10;99.90;;;;;;5041287;28;20560;-61
2022/01/29 04:55:36;;;;;;;35.88;16.10;;;8.10;99.90;;;;;;5031510;28;20060;-62
2022/01/29 04:58:02;;;;;;;34.70;16.58;;;8.00;99.90;;;;;;5034474;28;20045;-62
2022/01/29 05:00:29;;;;;;;35.10;17.05;;;8.10;99.90;;;;;;5029040;28;20037;-62
2022/01/29 05:03:04;;;;;;;34.15;16.10;;;8.10;99.90;;;;;;5023171;28;20040;-62
2022/01/29 05:05:30;;;;;;;32.28;16.52;;;8.10;99.90;;;;;;5032259;28;20110;-62
2022/01/29 05:07:56;;;;;;;38.40;16.60;;;8.10;99.90;;;;;;5031614;28;20623;-62
2022/01/29 05:10:22;;;;;;;33.13;15.82;;;8.10;99.90;;;;;;5034703;28;20047;-62
2022/01/29 05:12:59;;;;;;;31.58;15.00;;;8.10;99.90;;;;;;5024037;28;20048;-62
2022/01/29 05:29:18;;;;;;;28.00;15.82;;;8.10;99.90;;;;;;5032939;28;20048;-61
2022/01/29 05:31:44;;;;;;;34.80;16.17;;;8.10;99.90;;;;;;5024040;28;20423;-62
2022/01/29 05:34:11;;;;;;;34.50;15.95;;;8.20;99.90;;;;;;5031438;28;20048;-61
2022/01/29 05:36:36;;;;;;;32.05;16.30;;;8.20;99.90;;;;;;5031619;28;20849;-62
2022/01/29 05:39:04;;;;;;;32.10;16.48;;;8.10;99.90;;;;;;5018382;28;20041;-62
2022/01/29 05:41:30;;;;;;;29.23;16.83;;;8.20;99.90;;;;;;5039268;28;20053;-62
2022/01/29 05:43:56;;;;;;;27.10;15.50;;;8.20;99.90;;;;;;5036699;28;20139;-62
2022/01/29 05:46:23;;;;;;;30.50;16.83;;;8.20;99.90;;;;;;5031529;28;20084;-62
2022/01/29 05:48:48;;;;;;;32.90;17.48;;;8.20;99.90;;;;;;5031519;28;20104;-61
2022/01/29 05:51:14;;;;;;;36.47;17.23;;;8.20;99.90;;;;;;5032899;28;20064;-62
2022/01/29 05:53:40;;;;;;;35.88;17.45;;;8.20;99.90;;;;;;5049421;28;20082;-62
2022/01/29 05:56:06;;;;;;;32.03;16.63;;;8.20;99.90;;;;;;5047963;28;20128;-62
2022/01/29 05:58:32;;;;;;;29.83;16.63;;;8.20;99.90;;;;;;5029714;28;20146;-62
2022/01/29 06:00:59;;;;;;;31.90;16.10;;;8.30;99.90;;;;;;5024957;28;21166;-62
2022/01/29 06:03:24;;;;;;;35.30;17.20;;;8.30;99.90;;;;;;5047601;28;20123;-62
2022/01/29 06:05:50;;;;;;;32.65;16.52;;;8.30;99.90;;;;;;5031986;28;20455;-62
2022/01/29 06:08:16;;;;;;;31.58;16.67;;;8.30;99.90;;;;;;5032570;28;20440;-62
2022/01/29 06:10:42;;;;;;;27.50;16.23;;;8.30;99.90;;;;;;5039205;28;20127;-62
2022/01/29 06:13:14;;;;;;;26.35;15.02;;;8.30;99.90;;;;;;5032826;28;20044;-62
2022/01/29 06:15:48;;;;;;;33.00;15.87;;;8.30;99.90;;;;;;5016059;28;20041;-62
2022/01/29 06:18:18;;;;;;;25.90;16.00;;;8.40;99.90;;;;;;5030224;28;20102;-62
2022/01/29 06:20:46;;;;;;;27.48;16.65;;;8.30;99.90;;;;;;5022708;28;20127;-62
2022/01/29 06:23:13;;;;;;;35.00;16.30;;;8.30;99.90;;;;;;5034062;28;20056;-63
2022/01/29 06:25:39;;;;;;;32.67;15.73;;;8.40;99.90;;;;;;5030385;28;20290;-62
2022/01/29 06:28:05;;;;;;;30.00;15.48;;;8.40;99.90;;;;;;5028652;28;20048;-62
2022/01/29 06:30:31;;;;;;;29.02;14.98;;;8.40;99.90;;;;;;5029266;28;20668;-62
2022/01/29 06:33:05;;;;;;;24.27;15.07;;;8.40;99.90;;;;;;5039163;28;20041;-62
2022/01/29 06:35:30;;;;;;;31.38;14.98;;;8.40;99.90;;;;;;5036589;28;20045;-62
2022/01/29 06:37:56;;;;;;;28.83;16.20;;;8.40;99.90;;;;;;5015835;28;20094;-62
2022/01/29 06:40:22;;;;;;;32.20;15.05;;;8.40;99.90;;;;;;5030420;28;20118;-62
2022/01/29 06:42:48;;;;;;;30.85;15.25;;;8.40;99.90;;;;;;5009680;28;20127;-62
2022/01/29 06:45:13;;;;;;;33.78;15.40;;;8.50;99.90;;;;;;5027089;28;20107;-62
2022/01/29 06:47:39;;;;;;;28.05;15.00;;;8.40;99.90;;;;;;5028680;28;20056;-63
2022/01/29 06:50:05;;;;;;;28.35;14.95;;;8.40;99.90;;;;;;5012499;28;20596;-62
2022/01/29 06:52:31;;;;;;;26.45;14.52;;;8.40;99.90;;;;;;5049481;28;20824;-62
2022/01/29 06:54:57;;;;;;;31.08;15.43;;;8.40;99.90;;;;;;5030332;28;20175;-62
2022/01/29 06:57:22;;;;;;;26.55;15.07;;;8.40;99.90;;;;;;5030481;28;20072;-62
2022/01/29 06:59:48;;;;;;;32.38;15.45;;;8.40;99.90;;;;;;5019930;28;20040;-62
2022/01/29 07:02:14;;;;;;;32.35;16.13;;;8.50;99.90;;;;;;5031475;28;20052;-62
2022/01/29 07:04:40;;;;;;;32.13;15.40;;;8.40;99.90;;;;;;5048077;28;20063;-62
2022/01/29 07:07:05;;;;;;;28.17;15.82;;;8.40;99.90;;;;;;5017674;28;20064;-62
2022/01/29 07:09:31;;;;;;;29.23;15.60;;;8.40;99.90;;;;;;5046450;28;20121;-62
2022/01/29 07:12:07;;;;;;;27.88;15.93;;;8.40;99.90;;;;;;5037015;28;20037;-62
2022/01/29 07:14:36;;;;;;;30.33;14.65;;;8.40;99.90;;;;;;5026505;28;20088;-62
2022/01/29 07:17:03;;;;;;;30.90;15.07;;;8.40;99.90;;;;;;5019501;28;20086;-62
2022/01/29 07:19:29;;;;;;;26.80;14.80;;;8.40;99.90;;;;;;5015942;28;20043;-62
2022/01/29 07:21:54;;;;;;;26.27;14.93;;;8.40;99.90;;;;;;5046988;28;20048;-61
2022/01/29 07:24:20;;;;;;;29.65;14.07;;;8.40;99.90;;;;;;5034431;28;20044;-62
2022/01/29 07:26:46;;;;;;;25.48;14.55;;;8.40;99.90;;;;;;5020233;28;20049;-61
2022/01/29 07:29:11;;;;;;;30.10;14.75;;;8.40;99.90;;;;;;5033448;28;20084;-62
2022/01/29 07:31:39;;;;;;;26.48;14.25;;;8.40;99.90;;;;;;5037445;28;20045;-63
2022/01/29 07:34:04;;;;;;;25.05;13.25;;;8.40;99.90;;;;;;5009436;28;20488;-62
2022/01/29 07:36:30;;;;;;;22.70;13.02;;;8.40;99.90;;;;;;5032607;28;20056;-61
2022/01/29 07:38:56;;;;;;;25.55;13.07;;;8.50;99.90;;;;;;5051404;28;20523;-62
2022/01/29 07:41:22;;;;;;;27.83;14.00;;;8.50;99.90;;;;;;5036939;28;20059;-62
2022/01/29 07:43:47;;;;;;;24.55;12.95;;;8.50;99.90;;;;;;5026642;28;20427;-62
2022/01/29 07:46:13;;;;;;;32.70;12.95;;;8.50;99.90;;;;;;5019728;28;20076;-62
2022/01/29 07:48:39;;;;;;;35.10;13.55;;;8.50;99.90;;;;;;5026653;28;20052;-62
2022/01/29 07:51:05;;;;;;;22.77;13.02;;;8.40;99.90;;;;;;5043685;28;20071;-62
2022/01/29 07:53:30;;;;;;;25.85;13.43;;;8.50;99.90;;;;;;5034937;28;20036;-62
2022/01/29 07:55:56;;;;;;;25.63;12.88;;;8.40;99.90;;;;;;5015525;28;20149;-63
2022/01/29 07:58:22;;;;;;;26.88;12.90;;;8.40;99.90;;;;;;5032488;28;20052;-62
2022/01/29 08:00:48;;;;;;;23.58;11.63;;;8.40;99.90;;;;;;5034168;28;20040;-62
2022/01/29 08:03:14;;;;;;;28.15;12.80;;;8.40;99.90;;;;;;5021420;28;20099;-62
2022/01/29 08:05:40;;;;;;;22.08;11.35;;;8.40;99.90;;;;;;5015451;28;20099;-62
2022/01/29 08:08:05;;;;;;;22.00;11.75;;;8.40;99.90;;;;;;5012558;28;20056;-62
2022/01/29 08:10:32;;;;;;;22.58;11.95;;;8.40;99.90;;;;;;5029746;28;20481;-62
2022/01/29 08:12:58;;;;;;;22.48;11.95;;;8.50;99.90;;;;;;5033009;28;20317;-62
2022/01/29 08:15:24;;;;;;;20.85;11.45;;;8.40;99.90;;;;;;5014947;28;20049;-62
2022/01/29 08:17:50;;;;;;;23.48;11.90;;;8.40;99.90;;;;;;5015853;28;20506;-62
2022/01/29 08:20:16;;;;;;;21.25;11.13;;;8.50;99.90;;;;;;5030349;28;20714;-62
2022/01/29 08:22:42;;;;;;;19.27;10.25;;;8.50;99.90;;;;;;5023082;28;20049;-62
2022/01/29 08:25:08;;;;;;;20.75;11.05;;;8.50;99.90;;;;;;5033774;28;20044;-62
2022/01/29 08:27:33;;;;;;;15.85;10.00;;;8.50;99.90;;;;;;5021114;28;20049;-62
2022/01/29 08:29:59;;;;;;;28.08;11.07;;;8.60;99.90;;;;;;5015501;28;20451;-62
2022/01/29 08:32:25;;;;;;;17.00;9.77;;;8.60;99.90;;;;;;5031176;28;20771;-62
2022/01/29 08:34:51;;;;;;;22.80;9.57;;;8.60;99.90;;;;;;5045365;28;20098;-62
2022/01/29 08:37:16;;;;;;;20.58;9.48;;;8.60;99.90;;;;;;5027825;28;20342;-62
2022/01/29 08:39:43;;;;;;;16.67;9.05;;;8.60;99.90;;;;;;5014345;28;20052;-62
2022/01/29 08:42:09;;;;;;;17.38;9.55;;;8.60;99.90;;;;;;5027521;28;20048;-63
2022/01/29 08:44:36;;;;;;;23.15;9.45;;;8.60;99.90;;;;;;5026284;28;20045;-62
2022/01/29 08:47:02;;;;;;;18.02;8.55;;;8.60;99.90;;;;;;5011425;28;20052;-63
2022/01/29 08:49:27;;;;;;;16.02;8.65;;;8.70;99.90;;;;;;5019767;28;20042;-63
2022/01/29 08:51:54;;;;;;;15.25;9.10;;;8.70;99.90;;;;;;5010894;28;20491;-63
2022/01/29 08:54:20;;;;;;;18.52;8.18;;;8.80;99.90;;;;;;5010458;28;20072;-63
2022/01/29 08:56:45;;;;;;;19.08;7.65;;;8.80;99.90;;;;;;5027060;28;20061;-63
2022/01/29 08:59:11;;;;;;;13.07;7.55;;;8.80;99.90;;;;;;5031634;28;20057;-63
2022/01/29 09:01:37;;;;;;;16.60;7.43;;;8.90;99.90;;;;;;5017531;28;20049;-62
2022/01/29 09:04:03;;;;;;;19.23;8.20;;;8.90;99.90;;;;;;5018125;28;20785;-63
2022/01/29 09:06:30;;;;;;;18.88;8.10;;;8.90;99.90;;;;;;5024238;28;20470;-62
2022/01/29 09:08:55;;;;;;;17.60;7.55;;;9.00;99.90;;;;;;5025631;28;20550;-62
2022/01/29 09:11:21;;;;;;;14.88;6.82;;;9.00;99.90;;;;;;4999820;28;20046;-63
2022/01/29 09:13:47;;;;;;;19.50;7.80;;;9.00;99.90;;;;;;5012663;28;20044;-62
2022/01/29 09:16:13;;;;;;;15.93;7.20;;;9.00;99.90;;;;;;4993427;28;20845;-63
2022/01/29 09:18:39;;;;;;;17.75;6.63;;;9.00;99.90;;;;;;4995413;28;20578;-62
2022/01/29 09:21:05;;;;;;;14.68;6.65;;;9.00;99.90;;;;;;5035323;28;20049;-62
2022/01/29 09:23:31;;;;;;;12.73;6.22;;;9.00;99.90;;;;;;5013935;28;20080;-63
2022/01/29 09:25:57;;;;;;;15.25;6.57;;;9.00;99.90;;;;;;5029320;28;20854;-62
2022/01/29 09:28:23;;;;;;;15.18;6.95;;;9.10;99.90;;;;;;5033950;28;20604;-62
2022/01/29 09:30:50;;;;;;;22.85;6.82;;;9.00;99.90;;;;;;5030453;28;20040;-63
2022/01/29 09:33:17;;;;;;;18.17;6.35;;;9.10;99.90;;;;;;5028880;28;20496;-63
2022/01/29 09:35:43;;;;;;;14.77;6.85;;;9.10;99.90;;;;;;5044551;28;20067;-63
2022/01/29 09:38:11;;;;;;;12.77;5.65;;;9.10;99.90;;;;;;5009784;28;20445;-63
2022/01/29 09:40:37;;;;;;;12.65;5.88;;;9.10;99.90;;;;;;5011463;28;20044;-63
2022/01/29 09:43:06;;;;;;;12.95;5.55;;;9.20;99.90;;;;;;5034857;28;20081;-62
2022/01/29 09:45:33;;;;;;;13.52;5.93;;;9.20;99.90;;;;;;5017025;28;20045;-62
2022/01/29 09:48:02;;;;;;;17.48;5.90;;;9.20;99.90;;;;;;5044275;28;20045;-63
2022/01/29 09:50:33;;;;;;;17.17;5.57;;;9.20;99.90;;;;;;5022084;28;20629;-63
2022/01/29 09:53:00;;;;;;;12.15;4.85;;;9.30;99.90;;;;;;5030113;28;20041;-63
2022/01/29 09:55:27;;;;;;;16.88;5.00;;;9.30;99.90;;;;;;5018271;28;20045;-63
2022/01/29 09:57:57;;;;;;;16.85;5.43;;;9.30;99.90;;;;;;5007165;28;20056;-63
2022/01/29 10:00:23;;;;;;;12.98;4.57;;;9.30;99.90;;;;;;4999385;28;20128;-62
2022/01/29 10:03:10;;;;;;;8.80;4.25;;;9.40;99.90;;;;;;5028282;28;20870;-63
2022/01/29 10:05:43;;;;;;;15.95;4.82;;;9.40;99.90;;;;;;5011677;28;20457;-63
2022/01/29 10:08:09;;;;;;;;;;;9.40;99.90;;;;;;5026697;28;20051;-62
2022/01/29 10:10:40;;;;;;;10.98;4.28;;;9.40;99.90;;;;;;5025654;28;19925;-63
2022/01/29 10:13:30;;;;;;;16.98;4.43;;;9.40;99.90;;;;;;5021540;28;20044;-62
2022/01/29 10:16:06;;;;;;;10.98;3.83;;;9.50;99.90;;;;;;5011083;28;20045;-63
2022/01/29 10:18:33;;;;;;;16.13;3.97;;;9.50;99.90;;;;;;5007285;28;20384;-62
2022/01/29 10:21:11;;;;;;;15.55;3.88;;;9.50;99.90;;;;;;5009071;28;20045;-63
2022/01/29 10:23:37;;;;;;;11.85;3.63;;;9.50;99.90;;;;;;5035441;28;20448;-62
2022/01/29 10:26:04;;;;;;;14.48;3.67;;;9.50;99.90;;;;;;5028169;28;20452;-63
2022/01/29 10:28:31;;;;;;;11.40;3.65;;;9.50;99.90;;;;;;5021674;28;20533;-63
2022/01/29 10:31:15;;;;;;;10.60;3.78;;;9.50;99.90;;;;;;5024907;28;20553;-63
2022/01/29 10:33:42;;;;;;;11.48;3.60;;;9.60;99.90;;;;;;5043678;28;20073;-62
2022/01/29 10:36:14;;;;;;;11.95;3.20;;;9.50;99.90;;;;;;5024310;28;20055;-63
2022/01/29 10:38:40;;;;;;;14.17;3.70;;;9.60;99.90;;;;;;5029280;28;20432;-63
2022/01/29 10:41:28;;;;;;;14.15;3.40;;;9.60;99.90;;;;;;5028618;28;20456;-63
2022/01/29 10:44:18;;;;;;;14.15;3.60;;;9.60;99.90;;;;;;5009250;28;20042;-63
2022/01/29 10:46:49;;;;;;;11.15;3.40;;;9.60;99.90;;;;;;5022433;28;20512;-62
2022/01/29 10:49:24;;;;;;;9.98;3.10;;;9.60;99.90;;;;;;5028059;28;20140;-63
2022/01/29 10:52:13;;;;;;;8.90;2.85;;;9.60;99.90;;;;;;5009568;28;20045;-63
2022/01/29 10:54:44;;;;;;;11.45;3.00;;;9.60;99.90;;;;;;5025734;28;20500;-62
2022/01/29 10:57:13;;;;;;;9.07;3.05;;;9.60;99.90;;;;;;5023535;28;20042;-63
2022/01/29 10:59:53;;;;;;;14.05;3.33;;;9.70;99.90;;;;;;5040249;28;20056;-63
2022/01/29 11:02:23;;;;;;;12.50;3.10;;;9.70;99.90;;;;;;5029851;28;20510;-63
2022/01/29 11:04:49;;;;;;;10.18;3.03;;;9.70;99.90;;;;;;5040917;28;20057;-63
2022/01/29 11:07:24;;;;;;;10.82;2.85;;;9.70;99.90;;;;;;5014357;28;20607;-62
2022/01/29 11:09:51;;;;;;;12.10;2.67;;;9.70;99.90;;;;;;5023281;28;20520;-62
2022/01/29 11:12:25;;;;;;;15.55;3.20;;;9.70;99.90;;;;;;5014583;28;20068;-62
2022/01/29 11:14:54;;;;;;;11.40;2.95;;;9.80;99.90;;;;;;5031637;28;20041;-63
2022/01/29 11:17:22;;;;;;;11.13;2.75;;;9.80;99.90;;;;;;5011813;28;20044;-63
2022/01/29 11:19:48;;;;;;;10.18;2.83;;;9.80;99.90;;;;;;5031388;28;20045;-63
2022/01/29 11:22:20;;;;;;;11.80;2.75;;;9.80;99.90;;;;;;5018740;28;20150;-62
2022/01/29 11:24:47;;;;;;;9.55;2.80;;;9.80;99.90;;;;;;5013736;28;20053;-63
2022/01/29 11:27:25;;;;;;;11.57;2.78;;;9.80;99.90;;;;;;5010662;28;20049;-62
2022/01/29 11:30:00;;;;;;;8.82;2.97;;;9.90;99.90;;;;;;5026964;28;20487;-63
2022/01/29 11:32:28;;;;;;;8.95;3.00;;;9.90;99.90;;;;;;5019072;28;20045;-62
2022/01/29 11:35:02;;;;;;;9.43;3.22;;;9.80;99.90;;;;;;5014554;28;20079;-62
2022/01/29 11:38:02;;;;;;;12.60;2.55;;;9.90;99.90;;;;;;5026894;28;20389;-63
2022/01/29 11:40:49;;;;;;;10.57;2.65;;;9.90;99.90;;;;;;5011214;28;20048;-62
2022/01/29 11:43:15;;;;;;;9.65;2.83;;;9.90;99.90;;;;;;5023247;28;20053;-62
2022/01/29 11:48:56;;;;;;;9.02;2.58;;;9.90;99.90;;;;;;3673016;22;20045;-62
2022/01/29 11:51:45;;;;;;;7.72;2.70;;;10.00;99.90;;;;;;4965418;28;20054;-63
2022/01/29 11:54:17;;;;;;;9.15;2.25;;;10.00;99.90;;;;;;4955985;28;20065;-62
2022/01/29 11:56:44;;;;;;;9.30;2.72;;;10.00;99.90;;;;;;4974067;23;20057;-63
2022/01/29 11:59:31;;;;;;;8.45;2.83;;;10.10;99.90;;;;;;4937304;28;20094;-62
2022/01/29 12:02:03;;;;;;;10.25;2.50;;;10.10;99.90;;;;;;4984869;28;20128;-62
2022/01/29 12:05:06;;;;;;;10.23;2.83;;;10.20;99.90;;;;;;4972849;28;20051;-63
2022/01/29 12:07:36;;;;;;;12.40;3.08;;;10.20;99.90;;;;;;4940768;28;20062;-62
2022/01/29 12:10:10;;;;;;;10.38;2.47;;;10.20;99.90;;;;;;4987627;28;20046;-62
2022/01/29 12:12:41;;;;;;;9.20;2.47;;;10.30;99.90;;;;;;4969962;28;20039;-62
2022/01/29 12:15:10;;;;;;;10.43;2.22;;;10.30;99.90;;;;;;4975672;28;20043;-62
2022/01/29 12:17:58;;;;;;;10.10;2.42;;;10.30;99.90;;;;;;4957683;28;20503;-62
2022/01/29 12:20:26;;;;;;;11.55;2.42;;;10.40;99.90;;;;;;4978544;28;20046;-62
2022/01/29 12:22:58;;;;;;;11.52;2.33;;;10.40;99.90;;;;;;4968762;28;20048;-62
2022/01/29 12:25:28;;;;;;;13.93;2.20;;;10.50;99.90;;;;;;4979596;28;20455;-62
2022/01/29 12:28:03;;;;;;;7.68;2.28;;;10.50;99.90;;;;;;4979822;28;20126;-63
2022/01/29 12:30:34;;;;;;;12.52;2.63;;;10.50;99.90;;;;;;4963913;28;20066;-62
2022/01/29 12:33:10;;;;;;;8.10;2.63;;;10.50;99.90;;;;;;4964129;28;20604;-63
2022/01/29 12:35:58;;;;;;;14.00;2.60;;;10.60;99.90;;;;;;4984240;28;20092;-62
2022/01/29 12:38:27;;;;;;;9.05;3.00;;;10.60;99.90;;;;;;4978975;28;20546;-63
2022/01/29 12:40:58;;;;;;;18.65;2.47;;;10.60;99.90;;;;;;4975650;28;20500;-62
2022/01/29 12:43:39;;;;;;;10.57;2.47;;;10.70;99.90;;;;;;4951829;28;20117;-63
2022/01/29 12:46:16;;;;;;;16.33;3.30;;;10.70;99.90;;;;;;4951490;28;20043;-62
2022/01/29 12:48:55;;;;;;;15.75;3.10;;;10.70;99.90;;;;;;4959905;28;20117;-63
2022/01/29 19:58:32;;;;;;;28.45;4.47;;;6.90;99.90;;;;;;5466840;24;20139;-61
2022/01/29 20:00:58;;;;;;;29.17;4.85;;;6.90;99.90;;;;;;4733936;30;20060;-61
2022/01/29 20:03:23;;;;;;;27.02;4.65;;;6.90;99.90;;;;;;4745813;30;20060;-61
2022/01/29 20:05:50;;;;;;;27.10;4.82;;;6.90;99.90;;;;;;4747774;30;20062;-61
2022/01/29 20:08:17;;;;;;;28.60;4.93;;;6.90;99.90;;;;;;4748293;30;20056;-61
2022/01/29 20:10:44;;;;;;;24.70;5.03;;;6.90;99.90;;;;;;4747167;30;20045;-61